sensor_id;sensor_type;location;lat;lon;timestamp;P1;durP1;ratioP1;P2;durP2;ratioP2
74630;SDS011;63138;55.082;38.804;2023-09-30T00:01:11;21.70;;;11.98;;
74630;SDS011;63138;55.082;38.804;2023-09-30T00:03:37;20.00;;;12.17;;
74630;SDS011;63138;55.082;38.804;2023-09-30T00:06:04;22.83;;;12.10;;
74630;SDS011;63138;55.082;38.804;2023-09-30T00:08:30;22.27;;;12.15;;
74630;SDS011;63138;55.082;38.804;2023-09-30T00:10:58;25.35;;;12.25;;
74630;SDS011;63138;55.082;38.804;2023-09-30T00:13:25;19.98;;;11.45;;
74630;SDS011;63138;55.082;38.804;2023-09-30T00:18:44;21.17;;;12.05;;
74630;SDS011;63138;55.082;38.804;2023-09-30T00:21:10;18.85;;;12.65;;
74630;SDS011;63138;55.082;38.804;2023-09-30T00:23:36;23.15;;;12.73;;
74630;SDS011;63138;55.082;38.804;2023-09-30T00:26:04;21.63;;;12.35;;
74630;SDS011;63138;55.082;38.804;2023-09-30T00:28:30;21.37;;;12.37;;
74630;SDS011;63138;55.082;38.804;2023-09-30T00:30:56;24.30;;;12.63;;
74630;SDS011;63138;55.082;38.804;2023-09-30T00:33:23;19.38;;;11.77;;
74630;SDS011;63138;55.082;38.804;2023-09-30T00:35:49;21.95;;;12.55;;
74630;SDS011;63138;55.082;38.804;2023-09-30T00:38:15;20.87;;;12.30;;
74630;SDS011;63138;55.082;38.804;2023-09-30T00:40:50;21.02;;;11.40;;
74630;SDS011;63138;55.082;38.804;2023-09-30T00:43:19;23.70;;;13.13;;
74630;SDS011;63138;55.082;38.804;2023-09-30T00:45:47;19.75;;;12.05;;
74630;SDS011;63138;55.082;38.804;2023-09-30T00:48:15;20.95;;;11.70;;
74630;SDS011;63138;55.082;38.804;2023-09-30T00:50:41;21.23;;;12.20;;
74630;SDS011;63138;55.082;38.804;2023-09-30T00:53:08;22.70;;;12.75;;
74630;SDS011;63138;55.082;38.804;2023-09-30T00:55:33;21.10;;;12.98;;
74630;SDS011;63138;55.082;38.804;2023-09-30T00:58:00;22.98;;;13.32;;
74630;SDS011;63138;55.082;38.804;2023-09-30T01:00:27;19.07;;;12.07;;
74630;SDS011;63138;55.082;38.804;2023-09-30T01:02:53;21.60;;;12.13;;
74630;SDS011;63138;55.082;38.804;2023-09-30T01:05:19;20.27;;;10.95;;
74630;SDS011;63138;55.082;38.804;2023-09-30T01:07:46;21.40;;;12.85;;
74630;SDS011;63138;55.082;38.804;2023-09-30T01:10:12;22.63;;;13.13;;
74630;SDS011;63138;55.082;38.804;2023-09-30T01:12:38;22.07;;;13.47;;
74630;SDS011;63138;55.082;38.804;2023-09-30T01:15:04;21.50;;;13.40;;
74630;SDS011;63138;55.082;38.804;2023-09-30T01:17:31;24.05;;;13.40;;
74630;SDS011;63138;55.082;38.804;2023-09-30T01:19:58;24.00;;;13.05;;
74630;SDS011;63138;55.082;38.804;2023-09-30T01:22:30;21.55;;;13.02;;
74630;SDS011;63138;55.082;38.804;2023-09-30T01:24:56;22.17;;;12.73;;
74630;SDS011;63138;55.082;38.804;2023-09-30T01:27:25;23.45;;;14.60;;
74630;SDS011;63138;55.082;38.804;2023-09-30T01:29:50;20.35;;;13.30;;
74630;SDS011;63138;55.082;38.804;2023-09-30T01:32:16;21.43;;;13.53;;
74630;SDS011;63138;55.082;38.804;2023-09-30T01:34:42;22.50;;;13.35;;
74630;SDS011;63138;55.082;38.804;2023-09-30T01:37:10;20.33;;;12.25;;
74630;SDS011;63138;55.082;38.804;2023-09-30T01:39:37;25.55;;;14.45;;
74630;SDS011;63138;55.082;38.804;2023-09-30T01:42:03;24.47;;;14.10;;
74630;SDS011;63138;55.082;38.804;2023-09-30T01:44:32;25.52;;;13.57;;
74630;SDS011;63138;55.082;38.804;2023-09-30T01:46:58;20.45;;;12.23;;
74630;SDS011;63138;55.082;38.804;2023-09-30T01:49:24;26.87;;;14.60;;
74630;SDS011;63138;55.082;38.804;2023-09-30T01:51:51;22.40;;;13.25;;
74630;SDS011;63138;55.082;38.804;2023-09-30T01:54:18;21.88;;;12.68;;
74630;SDS011;63138;55.082;38.804;2023-09-30T01:56:44;21.83;;;13.30;;
74630;SDS011;63138;55.082;38.804;2023-09-30T01:59:13;21.27;;;13.60;;
74630;SDS011;63138;55.082;38.804;2023-09-30T02:01:39;22.87;;;13.37;;
74630;SDS011;63138;55.082;38.804;2023-09-30T02:04:05;20.42;;;13.35;;
74630;SDS011;63138;55.082;38.804;2023-09-30T02:06:32;23.17;;;13.88;;
74630;SDS011;63138;55.082;38.804;2023-09-30T02:08:58;25.73;;;14.07;;
74630;SDS011;63138;55.082;38.804;2023-09-30T02:11:24;22.67;;;13.55;;
74630;SDS011;63138;55.082;38.804;2023-09-30T02:13:50;25.88;;;15.10;;
74630;SDS011;63138;55.082;38.804;2023-09-30T02:16:16;23.85;;;13.73;;
74630;SDS011;63138;55.082;38.804;2023-09-30T02:18:43;22.73;;;13.43;;
74630;SDS011;63138;55.082;38.804;2023-09-30T02:21:17;22.55;;;13.80;;
74630;SDS011;63138;55.082;38.804;2023-09-30T02:23:43;30.95;;;14.98;;
74630;SDS011;63138;55.082;38.804;2023-09-30T02:26:16;21.40;;;13.70;;
74630;SDS011;63138;55.082;38.804;2023-09-30T02:29:00;21.87;;;13.47;;
74630;SDS011;63138;55.082;38.804;2023-09-30T02:31:26;21.63;;;13.45;;
74630;SDS011;63138;55.082;38.804;2023-09-30T02:33:52;24.55;;;14.55;;
74630;SDS011;63138;55.082;38.804;2023-09-30T02:36:18;28.17;;;14.27;;
74630;SDS011;63138;55.082;38.804;2023-09-30T02:38:44;25.42;;;14.00;;
74630;SDS011;63138;55.082;38.804;2023-09-30T02:41:11;26.67;;;14.77;;
74630;SDS011;63138;55.082;38.804;2023-09-30T02:43:38;25.48;;;14.32;;
74630;SDS011;63138;55.082;38.804;2023-09-30T02:46:04;30.37;;;16.73;;
74630;SDS011;63138;55.082;38.804;2023-09-30T02:48:30;31.13;;;15.38;;
74630;SDS011;63138;55.082;38.804;2023-09-30T02:50:56;25.73;;;14.20;;
74630;SDS011;63138;55.082;38.804;2023-09-30T02:53:21;28.65;;;15.95;;
74630;SDS011;63138;55.082;38.804;2023-09-30T02:55:48;24.05;;;14.50;;
74630;SDS011;63138;55.082;38.804;2023-09-30T02:58:15;29.25;;;16.95;;
74630;SDS011;63138;55.082;38.804;2023-09-30T03:00:41;27.87;;;15.30;;
74630;SDS011;63138;55.082;38.804;2023-09-30T03:03:07;26.25;;;15.48;;
74630;SDS011;63138;55.082;38.804;2023-09-30T03:05:34;27.33;;;15.55;;
74630;SDS011;63138;55.082;38.804;2023-09-30T03:08:01;27.40;;;15.48;;
74630;SDS011;63138;55.082;38.804;2023-09-30T03:10:28;28.00;;;14.98;;
74630;SDS011;63138;55.082;38.804;2023-09-30T03:12:54;27.53;;;15.20;;
74630;SDS011;63138;55.082;38.804;2023-09-30T03:15:29;26.95;;;13.93;;
74630;SDS011;63138;55.082;38.804;2023-09-30T03:17:56;29.17;;;16.00;;
74630;SDS011;63138;55.082;38.804;2023-09-30T03:20:23;25.20;;;13.93;;
74630;SDS011;63138;55.082;38.804;2023-09-30T03:22:50;26.40;;;14.30;;
74630;SDS011;63138;55.082;38.804;2023-09-30T03:25:18;25.53;;;14.13;;
74630;SDS011;63138;55.082;38.804;2023-09-30T03:27:47;23.85;;;14.52;;
74630;SDS011;63138;55.082;38.804;2023-09-30T03:30:38;25.73;;;13.85;;
74630;SDS011;63138;55.082;38.804;2023-09-30T03:33:06;30.08;;;15.18;;
74630;SDS011;63138;55.082;38.804;2023-09-30T03:35:31;26.30;;;15.07;;
74630;SDS011;63138;55.082;38.804;2023-09-30T03:37:57;20.92;;;13.85;;
74630;SDS011;63138;55.082;38.804;2023-09-30T03:40:23;27.13;;;14.20;;
74630;SDS011;63138;55.082;38.804;2023-09-30T03:42:55;22.65;;;13.63;;
74630;SDS011;63138;55.082;38.804;2023-09-30T03:45:20;23.37;;;12.90;;
74630;SDS011;63138;55.082;38.804;2023-09-30T03:47:46;23.58;;;14.48;;
74630;SDS011;63138;55.082;38.804;2023-09-30T03:50:14;25.15;;;14.25;;
74630;SDS011;63138;55.082;38.804;2023-09-30T03:52:41;24.27;;;13.98;;
74630;SDS011;63138;55.082;38.804;2023-09-30T03:55:13;25.35;;;14.23;;
74630;SDS011;63138;55.082;38.804;2023-09-30T03:57:41;24.43;;;15.07;;
74630;SDS011;63138;55.082;38.804;2023-09-30T04:00:07;24.85;;;14.52;;
74630;SDS011;63138;55.082;38.804;2023-09-30T04:02:42;27.60;;;15.10;;
74630;SDS011;63138;55.082;38.804;2023-09-30T04:05:09;22.73;;;13.25;;
74630;SDS011;63138;55.082;38.804;2023-09-30T04:07:37;23.10;;;13.25;;
74630;SDS011;63138;55.082;38.804;2023-09-30T04:10:03;24.33;;;13.97;;
74630;SDS011;63138;55.082;38.804;2023-09-30T04:12:33;22.17;;;13.18;;
74630;SDS011;63138;55.082;38.804;2023-09-30T04:14:59;26.10;;;14.30;;
74630;SDS011;63138;55.082;38.804;2023-09-30T04:17:32;21.48;;;12.82;;
74630;SDS011;63138;55.082;38.804;2023-09-30T04:19:58;20.73;;;12.17;;
74630;SDS011;63138;55.082;38.804;2023-09-30T04:22:25;20.20;;;12.05;;
74630;SDS011;63138;55.082;38.804;2023-09-30T04:24:54;23.23;;;12.73;;
74630;SDS011;63138;55.082;38.804;2023-09-30T04:27:20;20.02;;;12.38;;
74630;SDS011;63138;55.082;38.804;2023-09-30T04:29:47;21.45;;;12.80;;
74630;SDS011;63138;55.082;38.804;2023-09-30T04:32:14;22.17;;;13.27;;
74630;SDS011;63138;55.082;38.804;2023-09-30T04:34:40;27.95;;;14.70;;
74630;SDS011;63138;55.082;38.804;2023-09-30T04:37:06;25.38;;;15.13;;
74630;SDS011;63138;55.082;38.804;2023-09-30T04:39:34;25.67;;;15.82;;
74630;SDS011;63138;55.082;38.804;2023-09-30T04:42:01;28.27;;;15.70;;
74630;SDS011;63138;55.082;38.804;2023-09-30T04:44:29;22.90;;;15.00;;
74630;SDS011;63138;55.082;38.804;2023-09-30T04:46:54;26.30;;;13.15;;
74630;SDS011;63138;55.082;38.804;2023-09-30T04:49:21;22.20;;;14.23;;
74630;SDS011;63138;55.082;38.804;2023-09-30T04:51:48;24.03;;;13.37;;
74630;SDS011;63138;55.082;38.804;2023-09-30T04:54:14;24.33;;;13.60;;
74630;SDS011;63138;55.082;38.804;2023-09-30T04:56:40;24.63;;;14.48;;
74630;SDS011;63138;55.082;38.804;2023-09-30T04:59:06;20.93;;;13.73;;
74630;SDS011;63138;55.082;38.804;2023-09-30T05:01:33;25.50;;;14.50;;
74630;SDS011;63138;55.082;38.804;2023-09-30T05:03:59;23.27;;;13.50;;
74630;SDS011;63138;55.082;38.804;2023-09-30T05:06:25;23.02;;;13.23;;
74630;SDS011;63138;55.082;38.804;2023-09-30T05:08:52;25.95;;;15.20;;
74630;SDS011;63138;55.082;38.804;2023-09-30T05:11:18;22.10;;;13.87;;
74630;SDS011;63138;55.082;38.804;2023-09-30T05:13:44;22.58;;;13.90;;
74630;SDS011;63138;55.082;38.804;2023-09-30T05:16:10;19.98;;;13.35;;
74630;SDS011;63138;55.082;38.804;2023-09-30T05:21:30;21.30;;;13.00;;
74630;SDS011;63138;55.082;38.804;2023-09-30T05:23:57;24.75;;;13.35;;
74630;SDS011;63138;55.082;38.804;2023-09-30T05:26:23;19.02;;;12.95;;
74630;SDS011;63138;55.082;38.804;2023-09-30T05:28:49;23.50;;;12.88;;
74630;SDS011;63138;55.082;38.804;2023-09-30T05:31:15;20.97;;;13.23;;
74630;SDS011;63138;55.082;38.804;2023-09-30T05:33:41;19.05;;;12.63;;
74630;SDS011;63138;55.082;38.804;2023-09-30T05:36:07;20.73;;;13.35;;
74630;SDS011;63138;55.082;38.804;2023-09-30T05:38:34;20.60;;;12.77;;
74630;SDS011;63138;55.082;38.804;2023-09-30T05:41:00;19.85;;;12.65;;
74630;SDS011;63138;55.082;38.804;2023-09-30T05:43:26;19.50;;;12.77;;
74630;SDS011;63138;55.082;38.804;2023-09-30T05:45:52;19.13;;;12.88;;
74630;SDS011;63138;55.082;38.804;2023-09-30T05:48:23;18.95;;;12.82;;
74630;SDS011;63138;55.082;38.804;2023-09-30T05:50:49;20.23;;;11.95;;
74630;SDS011;63138;55.082;38.804;2023-09-30T05:53:16;19.83;;;11.03;;
74630;SDS011;63138;55.082;38.804;2023-09-30T05:55:50;18.70;;;12.47;;
74630;SDS011;63138;55.082;38.804;2023-09-30T05:58:16;17.42;;;12.55;;
74630;SDS011;63138;55.082;38.804;2023-09-30T06:00:42;18.38;;;12.40;;
74630;SDS011;63138;55.082;38.804;2023-09-30T06:03:08;17.30;;;13.02;;
74630;SDS011;63138;55.082;38.804;2023-09-30T06:05:42;19.20;;;13.07;;
74630;SDS011;63138;55.082;38.804;2023-09-30T06:08:08;17.85;;;12.82;;
74630;SDS011;63138;55.082;38.804;2023-09-30T06:10:42;22.77;;;12.93;;
74630;SDS011;63138;55.082;38.804;2023-09-30T06:13:09;19.80;;;12.25;;
74630;SDS011;63138;55.082;38.804;2023-09-30T06:15:39;17.52;;;12.90;;
74630;SDS011;63138;55.082;38.804;2023-09-30T06:18:06;18.80;;;13.63;;
74630;SDS011;63138;55.082;38.804;2023-09-30T06:20:33;18.50;;;13.07;;
74630;SDS011;63138;55.082;38.804;2023-09-30T06:22:59;19.45;;;12.43;;
74630;SDS011;63138;55.082;38.804;2023-09-30T06:25:28;19.63;;;13.35;;
74630;SDS011;63138;55.082;38.804;2023-09-30T06:27:56;19.83;;;12.80;;
74630;SDS011;63138;55.082;38.804;2023-09-30T06:30:22;24.17;;;13.63;;
74630;SDS011;63138;55.082;38.804;2023-09-30T06:32:56;18.38;;;13.27;;
74630;SDS011;63138;55.082;38.804;2023-09-30T06:35:22;23.27;;;13.70;;
74630;SDS011;63138;55.082;38.804;2023-09-30T06:37:48;19.63;;;12.82;;
74630;SDS011;63138;55.082;38.804;2023-09-30T06:40:14;18.17;;;13.40;;
74630;SDS011;63138;55.082;38.804;2023-09-30T06:42:40;25.37;;;13.93;;
74630;SDS011;63138;55.082;38.804;2023-09-30T06:45:07;21.58;;;13.38;;
74630;SDS011;63138;55.082;38.804;2023-09-30T06:47:35;19.88;;;13.52;;
74630;SDS011;63138;55.082;38.804;2023-09-30T06:50:08;20.58;;;13.13;;
74630;SDS011;63138;55.082;38.804;2023-09-30T06:52:40;17.00;;;12.13;;
74630;SDS011;63138;55.082;38.804;2023-09-30T06:55:08;17.37;;;12.87;;
74630;SDS011;63138;55.082;38.804;2023-09-30T06:57:35;18.10;;;12.30;;
74630;SDS011;63138;55.082;38.804;2023-09-30T07:00:05;18.13;;;13.13;;
74630;SDS011;63138;55.082;38.804;2023-09-30T07:02:40;21.13;;;13.02;;
74630;SDS011;63138;55.082;38.804;2023-09-30T07:05:10;21.98;;;13.73;;
74630;SDS011;63138;55.082;38.804;2023-09-30T07:07:38;21.23;;;14.10;;
74630;SDS011;63138;55.082;38.804;2023-09-30T07:10:05;19.20;;;12.45;;
74630;SDS011;63138;55.082;38.804;2023-09-30T07:12:35;16.48;;;13.00;;
74630;SDS011;63138;55.082;38.804;2023-09-30T07:15:01;16.25;;;13.00;;
74630;SDS011;63138;55.082;38.804;2023-09-30T07:17:33;20.92;;;12.75;;
74630;SDS011;63138;55.082;38.804;2023-09-30T07:20:00;16.37;;;13.13;;
74630;SDS011;63138;55.082;38.804;2023-09-30T07:22:33;20.10;;;12.25;;
74630;SDS011;63138;55.082;38.804;2023-09-30T07:25:00;18.50;;;12.63;;
74630;SDS011;63138;55.082;38.804;2023-09-30T07:27:29;17.00;;;11.65;;
74630;SDS011;63138;55.082;38.804;2023-09-30T07:29:55;16.48;;;12.18;;
74630;SDS011;63138;55.082;38.804;2023-09-30T07:32:21;17.43;;;11.53;;
74630;SDS011;63138;55.082;38.804;2023-09-30T07:35:18;16.75;;;11.15;;
74630;SDS011;63138;55.082;38.804;2023-09-30T07:37:44;15.70;;;11.48;;
74630;SDS011;63138;55.082;38.804;2023-09-30T07:40:11;14.02;;;11.40;;
74630;SDS011;63138;55.082;38.804;2023-09-30T07:42:37;15.52;;;12.07;;
74630;SDS011;63138;55.082;38.804;2023-09-30T07:45:04;13.97;;;10.00;;
74630;SDS011;63138;55.082;38.804;2023-09-30T07:47:32;13.25;;;10.95;;
74630;SDS011;63138;55.082;38.804;2023-09-30T07:50:01;15.93;;;11.18;;
74630;SDS011;63138;55.082;38.804;2023-09-30T07:52:32;15.57;;;11.70;;
74630;SDS011;63138;55.082;38.804;2023-09-30T07:54:58;13.63;;;10.38;;
74630;SDS011;63138;55.082;38.804;2023-09-30T07:57:24;13.03;;;10.67;;
